La Fayette, Illinois
Current Conditions -  °F | °C
As of 3:55 AM on Wednesday 26 Nov 2014 (Local Time) from KGBG Reporting Station
Clear Clear  
Wind Chill: 15°   Ceiling: Unl
Heat Index: 22°   Visibility: 7mi
Dew Point: 21°   Wind: 5mph
Humidity: 96%   Direction: 110°ESE
Pressure: 30.07"   Gusts: NA
Location:  41.11°N, 89.97°W
Report Text: KGBG 260955Z AUTO 11004KT 7SM CLR M06/M06 A3007 RMK AO2 T10571062
Loading
Personal Weather Stations






























Interactive Weather Map New forecast layout! Learn more

10-Day Weather Forecast

Advertisements
Track Severe Weather on mobile